Time;durP1;ratioP1;P1;durP2;ratioP2;P2;SDS_P1;SDS_P2;PMS_P1;PMS_P2;Temp;Humidity;BMP_temperature;BMP_pressure;BME280_temperature;BME280_humidity;BME280_pressure;Samples;Min_cycle;Max_cycle;Signal;HPM_P1;HPM_P2
2021/03/17 00:02:51;;;;;;;4.97;4.03;;;5.60;77.40;;;;;;5104518;28;26951;-40
2021/03/17 00:05:54;;;;;;;6.80;4.38;;;5.60;77.40;;;;;;5104193;28;27336;-39
2021/03/17 00:08:57;;;;;;;5.15;3.80;;;5.60;77.40;;;;;;5104270;28;27480;-40
2021/03/17 00:12:00;;;;;;;5.15;3.72;;;5.60;77.40;;;;;;5104060;28;27442;-40
2021/03/17 00:15:05;;;;;;;5.55;3.28;;;5.60;77.40;;;;;;5104641;28;27466;-41
2021/03/17 00:18:09;;;;;;;5.80;3.38;;;5.60;77.50;;;;;;5103855;28;27607;-41
2021/03/17 00:21:12;;;;;;;7.05;3.70;;;5.60;77.50;;;;;;5104148;28;27868;-41
2021/03/17 00:24:16;;;;;;;6.88;3.65;;;5.60;77.60;;;;;;5103650;28;27356;-41
2021/03/17 00:27:19;;;;;;;5.30;3.38;;;5.60;77.60;;;;;;5104488;28;27327;-41
2021/03/17 00:30:23;;;;;;;6.22;3.22;;;5.60;77.60;;;;;;5104098;28;27548;-41
2021/03/17 00:33:27;;;;;;;4.80;3.42;;;5.60;78.40;;;;;;5103434;28;27518;-40
2021/03/17 00:36:30;;;;;;;4.97;3.05;;;5.60;77.80;;;;;;5104223;28;27537;-39
2021/03/17 00:39:34;;;;;;;5.00;3.08;;;5.60;77.70;;;;;;5103775;27;27485;-40
2021/03/17 00:42:37;;;;;;;3.90;3.03;;;5.60;77.80;;;;;;5107602;28;27323;-40
2021/03/17 00:45:40;;;;;;;5.68;2.58;;;5.60;78.00;;;;;;5107540;28;27334;-40
2021/03/17 00:48:31;;;;;;;4.25;2.60;;;5.60;78.70;;;;;;5107367;28;27426;-41
2021/03/17 00:51:26;;;;;;;3.78;2.45;;;5.50;77.90;;;;;;5107258;28;27454;-41
2021/03/17 00:54:29;;;;;;;3.30;2.28;;;5.50;78.00;;;;;;5107120;28;27457;-40
2021/03/17 00:57:28;;;;;;;4.47;2.40;;;5.50;78.10;;;;;;5103967;28;27868;-38
2021/03/17 01:00:13;;;;;;;2.90;2.30;;;5.50;78.20;;;;;;5107496;28;27411;-41
2021/03/17 01:02:58;;;;;;;2.97;2.38;;;5.50;78.20;;;;;;5107308;28;27364;-40
2021/03/17 01:05:43;;;;;;;4.55;2.92;;;5.50;78.20;;;;;;5107175;28;27419;-41
2021/03/17 01:08:27;;;;;;;5.53;2.38;;;5.50;78.30;;;;;;5107308;28;27395;-40
2021/03/17 01:11:12;;;;;;;3.13;2.50;;;5.50;78.30;;;;;;5107323;28;27545;-41
2021/03/17 01:13:56;;;;;;;6.13;2.33;;;5.50;78.40;;;;;;5107054;28;27458;-40
2021/03/17 01:16:41;;;;;;;5.07;2.67;;;5.40;78.30;;;;;;5107293;28;27461;-40
2021/03/17 01:19:25;;;;;;;3.58;2.35;;;5.40;78.30;;;;;;5106712;28;27661;-40
2021/03/17 01:22:10;;;;;;;2.92;2.05;;;5.50;78.40;;;;;;5106908;28;27418;-41
2021/03/17 01:24:54;;;;;;;3.00;2.30;;;5.50;78.50;;;;;;5106904;28;27422;-41
2021/03/17 01:27:39;;;;;;;2.53;2.10;;;5.40;78.50;;;;;;5107122;28;27431;-41
2021/03/17 01:30:25;;;;;;;3.80;2.30;;;5.50;78.50;;;;;;5106711;28;27453;-41
2021/03/17 01:33:10;;;;;;;3.97;2.30;;;5.40;78.50;;;;;;5106968;28;27489;-41
2021/03/17 01:35:55;;;;;;;2.33;1.70;;;5.40;78.50;;;;;;5107046;28;27439;-41
2021/03/17 01:38:39;;;;;;;3.15;2.20;;;5.40;78.50;;;;;;5106945;28;27465;-40
2021/03/17 01:41:24;;;;;;;3.35;2.20;;;5.40;79.40;;;;;;5106903;28;27407;-40
2021/03/17 01:44:09;;;;;;;2.80;2.45;;;5.40;78.60;;;;;;5106836;28;27412;-40
2021/03/17 01:46:53;;;;;;;2.72;1.88;;;5.40;78.70;;;;;;5106415;28;27527;-40
2021/03/17 01:49:38;;;;;;;3.65;2.08;;;5.30;78.70;;;;;;5106297;28;27412;-40
2021/03/17 01:52:22;;;;;;;3.60;2.40;;;5.30;78.70;;;;;;5106303;28;27343;-40
2021/03/17 01:55:07;;;;;;;3.05;1.92;;;5.30;78.70;;;;;;5106670;28;27382;-40
2021/03/17 01:57:52;;;;;;;2.63;2.13;;;5.30;78.80;;;;;;5103395;28;27438;-40
2021/03/17 02:00:36;;;;;;;2.80;2.00;;;5.30;78.80;;;;;;5105513;28;27349;-40
2021/03/17 02:03:21;;;;;;;3.58;2.40;;;5.30;78.90;;;;;;5105509;28;27329;-39
2021/03/17 02:06:06;;;;;;;4.05;2.65;;;5.30;79.00;;;;;;5106494;28;27351;-41
2021/03/17 02:08:50;;;;;;;4.30;2.65;;;5.30;79.00;;;;;;5106413;28;27320;-40
2021/03/17 02:11:39;;;;;;;4.15;2.85;;;5.20;79.00;;;;;;5106197;28;27405;-42
2021/03/17 02:15:02;;;;;;;6.22;3.17;;;5.20;79.20;;;;;;5106057;28;27475;-40
2021/03/17 02:17:46;;;;;;;4.22;2.47;;;5.20;79.20;;;;;;5023346;28;27429;-40
2021/03/17 02:21:08;;;;;;;3.83;2.78;;;5.20;79.20;;;;;;4992781;28;27451;-41
2021/03/17 02:24:00;;;;;;;3.88;2.47;;;5.20;79.20;;;;;;5009654;28;27534;-40
2021/03/17 02:27:07;;;;;;;3.20;2.20;;;5.20;79.30;;;;;;5009737;28;27453;-40
2021/03/17 02:30:28;;;;;;;4.32;2.33;;;5.20;79.30;;;;;;5007985;28;27521;-40
2021/03/17 02:33:46;;;;;;;3.63;2.63;;;5.20;79.30;;;;;;5023600;28;27696;-41
2021/03/17 02:36:31;;;;;;;3.65;2.67;;;5.20;79.30;;;;;;5023747;28;27508;-40
2021/03/17 07:56:33;;;;;;;6.82;5.05;;;5.60;80.00;;;;;;5141306;27;27534;-39
2021/03/17 07:59:19;;;;;;;8.57;4.90;;;5.70;80.20;;;;;;5142603;27;27408;-39
2021/03/17 08:02:04;;;;;;;5.72;4.60;;;6.00;79.50;;;;;;5142469;27;27366;-39
2021/03/17 08:04:48;;;;;;;6.63;4.68;;;6.30;78.50;;;;;;5142709;27;27318;-39
2021/03/17 08:07:35;;;;;;;5.32;4.20;;;6.60;77.10;;;;;;5141795;27;27972;-39
2021/03/17 08:10:20;;;;;;;5.80;4.03;;;6.90;76.10;;;;;;5141623;27;27343;-41
2021/03/17 08:13:04;;;;;;;6.22;4.43;;;7.00;75.70;;;;;;5141905;27;27335;-39
2021/03/17 08:15:49;;;;;;;6.00;3.95;;;7.10;75.20;;;;;;5141540;27;27398;-39
2021/03/17 08:18:33;;;;;;;6.47;4.60;;;7.20;74.80;;;;;;5127056;27;27347;-39
2021/03/17 08:21:44;;;;;;;5.35;4.35;;;7.30;74.50;;;;;;5142352;27;27358;-39
2021/03/17 08:27:20;;;;;;;6.80;4.85;;;7.40;74.20;;;;;;5141946;27;27409;-40
2021/03/17 08:30:10;;;;;;;5.18;4.25;;;7.40;74.10;;;;;;5142102;27;27340;-40
2021/03/17 08:32:59;;;;;;;6.80;4.68;;;7.40;74.30;;;;;;5152533;27;27482;-40
2021/03/17 08:36:19;;;;;;;5.80;4.60;;;7.40;74.30;;;;;;5137569;27;27357;-40
2021/03/17 08:39:04;;;;;;;8.27;5.25;;;7.40;74.40;;;;;;5104297;27;27460;-39
2021/03/17 08:41:48;;;;;;;7.78;5.13;;;7.50;74.20;;;;;;5105006;27;27942;-39
2021/03/17 08:44:39;;;;;;;8.80;5.13;;;7.60;74.10;;;;;;5119509;27;27503;-39
2021/03/17 08:47:43;;;;;;;7.57;5.47;;;7.70;73.70;;;;;;5104027;27;27337;-39
2021/03/17 08:50:29;;;;;;;8.73;5.35;;;7.80;73.50;;;;;;5101620;27;27452;-39
2021/03/17 08:53:40;;;;;;;7.85;5.03;;;7.90;73.60;;;;;;5118768;27;27956;-39
2021/03/17 08:56:49;;;;;;;7.80;5.00;;;8.00;73.30;;;;;;5118500;27;27569;-40
2021/03/17 09:00:01;;;;;;;6.95;4.82;;;8.10;72.80;;;;;;5119087;27;27363;-40
2021/03/17 09:02:45;;;;;;;8.55;5.38;;;8.30;72.60;;;;;;5119193;27;27438;-40
2021/03/17 09:05:29;;;;;;;7.32;5.35;;;8.50;72.00;;;;;;5119371;27;27536;-39
2021/03/17 09:08:14;;;;;;;7.47;5.13;;;8.70;71.50;;;;;;5105135;28;27513;-40
2021/03/17 09:10:59;;;;;;;8.57;5.00;;;8.90;71.20;;;;;;5091112;28;27473;-39
2021/03/17 09:13:54;;;;;;;7.97;5.20;;;9.00;71.00;;;;;;5137427;27;27467;-40
2021/03/17 09:17:09;;;;;;;8.25;5.18;;;9.40;70.30;;;;;;5127594;27;28051;-39
2021/03/17 09:20:08;;;;;;;6.40;4.78;;;9.80;69.20;;;;;;5127035;27;27472;-40
2021/03/17 09:23:01;;;;;;;6.50;4.53;;;10.30;67.90;;;;;;5127766;27;27318;-40
2021/03/17 09:25:50;;;;;;;6.05;4.70;;;10.80;66.40;;;;;;5127303;27;27483;-40
2021/03/17 09:28:35;;;;;;;7.25;4.35;;;11.50;64.50;;;;;;5127570;27;27907;-41
2021/03/17 09:31:21;;;;;;;7.25;4.78;;;12.50;61.50;;;;;;5127449;27;27323;-39
2021/03/17 09:34:06;;;;;;;5.97;4.68;;;13.50;59.10;;;;;;5127148;27;27404;-40
2021/03/17 09:36:50;;;;;;;5.85;4.22;;;14.30;57.50;;;;;;5127486;27;27377;-46
2021/03/17 09:39:35;;;;;;;7.03;4.05;;;15.00;56.10;;;;;;5127402;27;27326;-41
2021/03/17 09:42:20;;;;;;;5.53;4.10;;;15.40;55.20;;;;;;5127063;27;27411;-41
2021/03/17 09:45:06;;;;;;;6.05;3.42;;;15.70;55.00;;;;;;5127141;27;27356;-42
2021/03/17 09:47:55;;;;;;;7.30;3.60;;;15.80;54.70;;;;;;5125986;27;27322;-40
2021/03/17 09:50:39;;;;;;;5.88;3.60;;;15.80;54.90;;;;;;5127198;27;27852;-41
2021/03/17 09:53:24;;;;;;;5.30;3.72;;;16.40;53.50;;;;;;5127096;27;27451;-41
2021/03/17 09:56:09;;;;;;;7.82;3.53;;;16.70;53.00;;;;;;5126147;27;27411;-40
2021/03/17 09:58:53;;;;;;;4.10;2.85;;;16.70;52.90;;;;;;5126103;27;27497;-40
2021/03/17 10:02:02;;;;;;;5.88;2.75;;;16.60;53.50;;;;;;5126356;27;27386;-40
2021/03/17 10:04:48;;;;;;;3.63;2.65;;;16.60;53.20;;;;;;5126979;27;27430;-41
2021/03/17 10:07:33;;;;;;;5.35;3.25;;;16.60;53.00;;;;;;5127026;27;27339;-41
2021/03/17 10:10:18;;;;;;;5.57;2.63;;;17.20;52.10;;;;;;5126872;27;27394;-42
2021/03/17 10:13:03;;;;;;;3.45;2.58;;;18.10;50.90;;;;;;5126075;27;27476;-41
2021/03/17 10:15:51;;;;;;;2.45;2.20;;;19.00;49.60;;;;;;5125779;27;27414;-42
2021/03/17 10:18:35;;;;;;;2.80;2.28;;;19.80;47.80;;;;;;5125735;27;27354;-41
2021/03/17 10:21:25;;;;;;;2.47;2.00;;;20.30;46.80;;;;;;5125714;27;27422;-42
2021/03/17 10:24:11;;;;;;;2.72;2.15;;;20.30;46.30;;;;;;5126392;27;27946;-43
2021/03/17 10:26:55;;;;;;;5.25;2.22;;;20.10;46.70;;;;;;5126399;27;27488;-43
2021/03/17 10:29:41;;;;;;;3.05;1.65;;;19.90;47.30;;;;;;5125629;27;27479;-41
2021/03/17 10:32:25;;;;;;;3.17;2.08;;;19.60;47.90;;;;;;5126556;27;27445;-41
2021/03/17 10:35:12;;;;;;;1.85;1.60;;;19.70;48.10;;;;;;5122699;27;27456;-41
2021/03/17 10:37:58;;;;;;;2.83;1.65;;;19.90;47.60;;;;;;5126139;27;27485;-42
2021/03/17 10:40:43;;;;;;;5.05;2.10;;;19.90;47.90;;;;;;5125655;27;27352;-42
2021/03/17 10:43:31;;;;;;;3.28;1.75;;;20.30;47.10;;;;;;5126420;27;27501;-43
2021/03/17 10:46:16;;;;;;;2.55;1.63;;;21.20;45.80;;;;;;5136645;27;27432;-43
2021/03/17 10:49:00;;;;;;;1.65;1.17;;;22.10;44.50;;;;;;5122030;27;27385;-43
2021/03/17 10:51:53;;;;;;;3.42;1.40;;;23.00;43.00;;;;;;5125571;27;27341;-47
2021/03/17 10:54:39;;;;;;;4.32;1.20;;;23.90;41.00;;;;;;5125600;27;27468;-42
2021/03/17 10:57:24;;;;;;;1.63;1.13;;;24.70;39.80;;;;;;5125861;27;27365;-45
2021/03/17 11:00:14;;;;;;;1.67;1.00;;;25.50;39.00;;;;;;5122508;27;27361;-43
2021/03/17 11:02:58;;;;;;;1.67;1.10;;;26.20;37.30;;;;;;5125928;27;27517;-43
2021/03/17 11:05:43;;;;;;;2.60;1.13;;;26.20;36.30;;;;;;5107281;27;27402;-47
2021/03/17 11:08:27;;;;;;;2.83;1.17;;;25.60;37.00;;;;;;5125342;27;27335;-42
2021/03/17 11:11:12;;;;;;;3.78;1.30;;;24.80;38.10;;;;;;5125921;27;27413;-43
2021/03/17 11:13:57;;;;;;;3.75;1.60;;;24.00;39.40;;;;;;5125901;27;27319;-45
2021/03/17 11:16:42;;;;;;;4.13;1.27;;;23.70;40.50;;;;;;5125626;27;27340;-45
2021/03/17 11:19:26;;;;;;;2.50;1.45;;;23.40;40.50;;;;;;5125816;27;27324;-42
2021/03/17 11:22:10;;;;;;;2.50;1.40;;;23.00;41.40;;;;;;5125075;27;27428;-44
2021/03/17 11:25:05;;;;;;;3.33;1.30;;;22.50;42.40;;;;;;5125413;27;27322;-44
2021/03/17 11:27:50;;;;;;;1.20;1.10;;;21.80;43.40;;;;;;5125483;27;27349;-44
2021/03/17 11:30:53;;;;;;;2.10;1.17;;;21.20;44.20;;;;;;5124375;27;27378;-43
2021/03/17 11:33:38;;;;;;;2.33;1.30;;;20.60;44.60;;;;;;5125322;27;27468;-42
2021/03/17 11:36:23;;;;;;;2.60;1.50;;;20.20;45.40;;;;;;5122730;27;27417;-42
2021/03/17 11:39:09;;;;;;;4.28;1.50;;;19.80;45.40;;;;;;5125243;27;27409;-45
2021/03/17 11:41:54;;;;;;;5.35;2.13;;;19.60;45.90;;;;;;5125480;27;27362;-42
2021/03/17 11:44:38;;;;;;;5.53;1.50;;;19.50;46.20;;;;;;5125066;27;27323;-42
2021/03/17 11:47:23;;;;;;;3.80;1.52;;;19.40;46.20;;;;;;5125467;27;27398;-43
2021/03/17 11:50:08;;;;;;;5.00;1.75;;;19.30;46.40;;;;;;5125361;27;27456;-44
2021/03/17 11:52:52;;;;;;;3.53;1.58;;;19.10;46.80;;;;;;5125037;27;27889;-46
2021/03/17 11:55:37;;;;;;;2.83;1.70;;;19.10;46.60;;;;;;5124485;27;27549;-41
2021/03/17 11:58:22;;;;;;;2.13;1.60;;;19.20;46.60;;;;;;5125049;27;27426;-42
2021/03/17 12:01:06;;;;;;;3.95;1.67;;;19.70;45.90;;;;;;5125240;27;27426;-42
2021/03/17 12:03:51;;;;;;;2.00;1.40;;;19.90;45.40;;;;;;5124563;27;27576;-42
2021/03/17 12:06:36;;;;;;;1.40;1.30;;;19.70;45.70;;;;;;5124427;27;27513;-43
2021/03/17 12:09:20;;;;;;;4.97;1.75;;;19.30;45.80;;;;;;5124473;27;27469;-42
2021/03/17 12:12:05;;;;;;;2.75;1.75;;;18.80;46.40;;;;;;5125109;27;27398;-43
2021/03/17 12:14:49;;;;;;;4.35;1.70;;;18.20;47.30;;;;;;5109896;27;27415;-44
2021/03/17 12:17:34;;;;;;;3.10;1.85;;;17.70;48.00;;;;;;5124674;27;27427;-41
2021/03/17 12:20:24;;;;;;;11.50;2.63;;;17.40;48.60;;;;;;5121658;27;27442;-42
2021/03/17 12:23:09;;;;;;;8.27;3.13;;;16.80;45.20;;;;;;5124721;27;27405;-42
2021/03/17 12:25:54;;;;;;;7.40;2.42;;;16.10;44.40;;;;;;5124372;27;27350;-42
2021/03/17 12:28:39;;;;;;;4.13;2.08;;;15.40;46.40;;;;;;5124549;27;27335;-40
2021/03/17 12:31:25;;;;;;;5.60;3.05;;;15.00;47.60;;;;;;5124060;27;27401;-44
2021/03/17 12:34:10;;;;;;;3.88;2.53;;;14.40;47.70;;;;;;5124844;27;27377;-42
2021/03/17 12:36:55;;;;;;;4.20;2.53;;;14.00;49.10;;;;;;5124931;27;27402;-41
2021/03/17 12:39:40;;;;;;;3.42;2.55;;;13.70;50.20;;;;;;5138664;27;27361;-42
2021/03/17 12:42:24;;;;;;;3.58;2.28;;;13.70;50.90;;;;;;5123577;27;27347;-40
2021/03/17 12:45:10;;;;;;;7.88;2.60;;;13.70;51.40;;;;;;5128150;27;27313;-42
2021/03/17 12:47:55;;;;;;;4.10;2.45;;;13.60;52.00;;;;;;5127933;27;27377;-42
2021/03/17 12:50:40;;;;;;;5.93;2.10;;;13.50;52.30;;;;;;5127844;27;27350;-47
2021/03/17 12:53:25;;;;;;;4.97;2.03;;;13.50;52.70;;;;;;5128255;27;27315;-41
2021/03/17 12:56:09;;;;;;;3.95;1.83;;;13.50;52.70;;;;;;5126876;27;27335;-42
2021/03/17 12:58:54;;;;;;;5.30;3.53;;;13.40;53.00;;;;;;5112497;27;27363;-41
2021/03/17 13:01:38;;;;;;;4.03;2.20;;;13.30;53.40;;;;;;5127939;27;27399;-42
2021/03/17 13:04:22;;;;;;;4.65;2.40;;;13.10;53.60;;;;;;5127969;27;27497;-39
2021/03/17 13:07:07;;;;;;;4.97;2.13;;;13.00;54.10;;;;;;5126941;27;27482;-40
2021/03/17 13:09:52;;;;;;;4.38;2.90;;;12.80;54.40;;;;;;5127572;27;27476;-39
2021/03/17 13:12:37;;;;;;;4.20;3.15;;;12.60;54.80;;;;;;5124277;27;27442;-42
2021/03/17 13:15:21;;;;;;;5.82;2.88;;;12.40;55.40;;;;;;5127842;27;27417;-42
2021/03/17 13:18:06;;;;;;;4.20;2.40;;;12.20;56.10;;;;;;5127484;27;27483;-45
2021/03/17 13:20:50;;;;;;;4.18;2.60;;;12.00;56.60;;;;;;5141668;27;27413;-41
2021/03/17 13:23:35;;;;;;;3.97;2.70;;;11.90;56.70;;;;;;5123345;27;27398;-41
2021/03/17 13:26:20;;;;;;;3.80;2.67;;;11.80;57.00;;;;;;5127453;27;27418;-43
2021/03/17 13:29:04;;;;;;;4.88;3.05;;;11.80;57.20;;;;;;5138241;27;26922;-40
2021/03/17 13:31:49;;;;;;;5.63;2.80;;;12.00;57.20;;;;;;5127313;27;27481;-47
2021/03/17 13:34:34;;;;;;;4.88;3.53;;;12.20;56.90;;;;;;5127455;27;27615;-39
2021/03/17 13:37:19;;;;;;;12.55;5.60;;;12.50;56.70;;;;;;5127572;27;27395;-42
2021/03/17 13:40:06;;;;;;;3.92;3.05;;;12.70;56.10;;;;;;5127530;27;27316;-39
2021/03/17 13:42:51;;;;;;;4.20;3.10;;;12.80;55.80;;;;;;5137934;27;27571;-45
2021/03/17 13:45:36;;;;;;;3.95;3.00;;;12.80;56.10;;;;;;5123585;27;27390;-41
2021/03/17 13:48:21;;;;;;;6.68;3.03;;;12.80;56.40;;;;;;5126789;27;27450;-44
2021/03/17 13:51:05;;;;;;;3.33;2.72;;;12.60;56.50;;;;;;5127246;27;27438;-42
2021/03/17 13:53:50;;;;;;;4.85;3.30;;;12.40;56.90;;;;;;5126814;27;27868;-43
2021/03/17 13:56:34;;;;;;;3.95;3.00;;;12.40;57.40;;;;;;5126433;27;27476;-44
2021/03/17 13:59:19;;;;;;;4.18;2.70;;;12.30;57.40;;;;;;5127224;27;27487;-42
2021/03/17 14:02:03;;;;;;;5.32;3.20;;;12.10;57.70;;;;;;5127134;27;27323;-42
2021/03/17 14:04:48;;;;;;;3.90;3.33;;;11.90;58.30;;;;;;5126959;27;27958;-39
2021/03/17 14:07:32;;;;;;;6.68;3.25;;;11.70;59.00;;;;;;5126770;27;27474;-42
2021/03/17 14:10:19;;;;;;;6.95;3.20;;;11.40;59.20;;;;;;5127010;27;27378;-45
2021/03/17 14:13:04;;;;;;;4.82;3.70;;;11.20;59.40;;;;;;5126932;27;27378;-42
2021/03/17 14:15:49;;;;;;;4.32;3.45;;;11.10;59.70;;;;;;5126574;27;27411;-44
2021/03/17 14:18:34;;;;;;;3.35;2.80;;;11.10;59.80;;;;;;5123160;27;27442;-43
2021/03/17 14:21:18;;;;;;;3.60;2.60;;;11.20;59.70;;;;;;5126788;27;27390;-43
2021/03/17 14:24:04;;;;;;;3.65;2.92;;;11.40;59.50;;;;;;5126495;27;27411;-45
2021/03/17 14:26:48;;;;;;;3.65;3.03;;;11.40;59.30;;;;;;5126358;27;27377;-43
2021/03/17 14:29:33;;;;;;;6.60;2.95;;;11.60;59.10;;;;;;5126588;27;27389;-45
2021/03/17 14:32:17;;;;;;;4.20;2.75;;;11.70;59.10;;;;;;5126441;27;27397;-45
2021/03/17 14:35:06;;;;;;;4.43;3.03;;;11.80;58.70;;;;;;5126546;27;27382;-44
2021/03/17 14:37:50;;;;;;;3.63;2.92;;;12.00;58.50;;;;;;5122425;27;27948;-45
2021/03/17 14:40:36;;;;;;;2.80;2.50;;;12.20;58.60;;;;;;5126696;27;27455;-38
2021/03/17 14:43:21;;;;;;;3.85;3.17;;;12.60;58.20;;;;;;5126069;27;27337;-45
2021/03/17 14:46:05;;;;;;;2.88;2.58;;;13.10;57.80;;;;;;5125908;27;27463;-44
2021/03/17 14:48:50;;;;;;;3.17;2.40;;;13.50;57.30;;;;;;5126417;27;27506;-42
2021/03/17 14:51:34;;;;;;;3.63;2.42;;;13.80;56.60;;;;;;5123077;27;27528;-42
2021/03/17 14:54:19;;;;;;;4.82;2.25;;;14.00;56.20;;;;;;5125797;27;27625;-42
2021/03/17 14:57:04;;;;;;;4.22;2.40;;;14.30;56.20;;;;;;5126309;27;27338;-44
2021/03/17 14:59:48;;;;;;;5.53;2.33;;;14.60;55.70;;;;;;5126189;27;27408;-45
2021/03/17 15:02:33;;;;;;;2.67;2.45;;;14.80;55.30;;;;;;5122313;27;27366;-46
2021/03/17 15:05:17;;;;;;;2.33;2.13;;;15.00;55.00;;;;;;5125417;27;27453;-43
2021/03/17 15:08:02;;;;;;;2.85;2.05;;;15.00;54.60;;;;;;5125966;27;27324;-44
2021/03/17 15:10:46;;;;;;;2.17;1.85;;;15.10;54.50;;;;;;5125711;27;27868;-44
2021/03/17 15:13:31;;;;;;;1.70;1.60;;;15.10;54.40;;;;;;5122599;27;27420;-42
2021/03/17 15:16:16;;;;;;;1.85;1.60;;;14.90;54.40;;;;;;5125673;27;27387;-43
2021/03/17 15:19:01;;;;;;;2.38;1.63;;;14.70;54.90;;;;;;5125535;27;27385;-42
2021/03/17 15:21:45;;;;;;;1.60;1.50;;;14.30;55.20;;;;;;5125511;27;27391;-43
2021/03/17 15:24:30;;;;;;;1.83;1.73;;;14.10;55.90;;;;;;5125660;27;27322;-39
2021/03/17 15:27:14;;;;;;;2.47;1.75;;;13.90;56.40;;;;;;5125391;27;27374;-42
2021/03/17 15:29:59;;;;;;;2.22;1.80;;;13.60;56.70;;;;;;5125639;27;27393;-41
2021/03/17 15:32:43;;;;;;;2.33;1.92;;;13.40;57.00;;;;;;5125596;27;27426;-41
2021/03/17 15:35:28;;;;;;;2.00;1.55;;;13.10;57.40;;;;;;5121418;27;27460;-42
2021/03/17 15:38:13;;;;;;;1.60;1.50;;;12.90;57.90;;;;;;5125304;27;27422;-41
2021/03/17 15:40:58;;;;;;;2.03;1.70;;;12.60;58.50;;;;;;5124811;27;27422;-43
2021/03/17 15:43:42;;;;;;;2.35;1.60;;;12.40;59.00;;;;;;5125217;27;27457;-43
2021/03/17 15:46:27;;;;;;;1.83;1.35;;;12.00;58.50;;;;;;5124836;27;27426;-43
2021/03/17 15:49:11;;;;;;;1.58;1.27;;;11.70;58.80;;;;;;5125498;27;27453;-46
2021/03/17 15:51:56;;;;;;;1.20;1.10;;;11.40;59.00;;;;;;5124372;27;27435;-43
2021/03/17 15:54:41;;;;;;;0.98;0.95;;;11.00;59.30;;;;;;5124957;27;27453;-46
2021/03/17 15:57:26;;;;;;;0.88;0.80;;;10.70;59.80;;;;;;5121145;27;27509;-46
2021/03/17 16:00:12;;;;;;;1.00;0.80;;;10.40;60.10;;;;;;5126068;27;27410;-40
2021/03/17 16:02:57;;;;;;;2.22;1.00;;;10.10;60.70;;;;;;5121885;27;27399;-42
2021/03/17 16:05:42;;;;;;;0.70;0.70;;;9.90;61.40;;;;;;5124494;27;27508;-43
2021/03/17 16:08:26;;;;;;;0.85;0.75;;;9.70;62.00;;;;;;5121841;27;27402;-43
2021/03/17 16:11:11;;;;;;;0.85;0.65;;;9.70;62.50;;;;;;5125356;27;27399;-46
2021/03/17 16:13:55;;;;;;;1.05;0.70;;;9.60;63.00;;;;;;5124870;27;27461;-39
2021/03/17 16:16:40;;;;;;;0.95;0.85;;;9.50;63.70;;;;;;5125848;27;27885;-43
2021/03/17 16:19:25;;;;;;;1.27;1.17;;;9.50;64.00;;;;;;5124574;27;27378;-42
2021/03/17 16:22:10;;;;;;;0.50;0.50;;;9.40;64.20;;;;;;5128748;27;27437;-42
2021/03/17 16:24:55;;;;;;;0.73;0.73;;;9.40;64.40;;;;;;5110181;27;27472;-43
2021/03/17 16:27:39;;;;;;;0.90;0.80;;;9.40;64.60;;;;;;5128577;27;27974;-43
2021/03/17 16:30:24;;;;;;;1.00;0.70;;;9.50;64.60;;;;;;5128607;27;27381;-46
2021/03/17 16:33:10;;;;;;;1.92;0.90;;;9.50;64.50;;;;;;5126148;27;27323;-42
2021/03/17 16:35:54;;;;;;;1.20;0.77;;;9.40;64.30;;;;;;5124112;27;27440;-41
2021/03/17 16:38:39;;;;;;;0.85;0.85;;;9.40;64.60;;;;;;5128541;27;27357;-41
2021/03/17 16:41:23;;;;;;;0.98;0.88;;;9.30;64.70;;;;;;5128237;27;27420;-39
2021/03/17 16:44:08;;;;;;;1.27;1.17;;;9.30;64.70;;;;;;5127423;27;27470;-40
2021/03/17 16:46:52;;;;;;;0.85;0.85;;;9.20;65.20;;;;;;5128073;27;27390;-38
2021/03/17 16:49:37;;;;;;;1.13;1.00;;;9.10;65.30;;;;;;5128188;27;27928;-40
2021/03/17 16:52:22;;;;;;;1.65;1.30;;;9.10;65.40;;;;;;5127975;27;27416;-38
2021/03/17 16:55:07;;;;;;;1.77;1.27;;;9.00;65.40;;;;;;5127339;27;27398;-41
2021/03/17 16:57:52;;;;;;;1.10;1.00;;;8.90;65.70;;;;;;5127899;27;27389;-41
2021/03/17 17:00:36;;;;;;;2.22;1.65;;;8.90;65.90;;;;;;5126710;27;27875;-42
2021/03/17 17:03:20;;;;;;;2.85;1.75;;;8.90;66.00;;;;;;5127207;27;27459;-41
2021/03/17 17:06:06;;;;;;;1.33;1.23;;;8.80;66.10;;;;;;5127795;27;27402;-41
2021/03/17 17:08:50;;;;;;;1.85;1.63;;;8.70;66.30;;;;;;5127983;27;27303;-41
2021/03/17 17:11:35;;;;;;;1.48;1.38;;;8.60;66.20;;;;;;5123850;27;27964;-42
2021/03/17 17:14:20;;;;;;;1.73;1.40;;;8.50;66.60;;;;;;5127509;27;27418;-39
2021/03/17 17:17:05;;;;;;;3.20;1.58;;;8.40;67.10;;;;;;5127884;27;27327;-41
2021/03/17 17:19:49;;;;;;;44.78;5.72;;;8.30;67.30;;;;;;5127424;27;27320;-41
2021/03/17 17:22:34;;;;;;;40.85;3.13;;;8.20;67.60;;;;;;5127783;27;27412;-42
2021/03/17 17:25:18;;;;;;;26.58;3.03;;;8.10;68.00;;;;;;5127197;27;27497;-41
2021/03/17 17:28:03;;;;;;;22.40;2.65;;;8.00;68.20;;;;;;5126502;27;27489;-40
2021/03/17 17:30:48;;;;;;;9.10;2.13;;;7.90;68.40;;;;;;5127534;27;27453;-41
2021/03/17 17:33:33;;;;;;;10.90;2.10;;;7.80;68.80;;;;;;5108679;27;27482;-41
2021/03/17 17:36:18;;;;;;;13.23;2.03;;;7.70;69.10;;;;;;5126632;27;27496;-42
2021/03/17 17:39:04;;;;;;;5.88;2.20;;;7.70;69.40;;;;;;5127138;27;27418;-41
2021/03/17 17:41:48;;;;;;;7.53;2.10;;;7.60;69.70;;;;;;5127019;27;27464;-41
2021/03/17 17:44:33;;;;;;;8.93;2.88;;;7.50;70.00;;;;;;5127018;27;27414;-39
2021/03/17 17:47:17;;;;;;;11.60;2.92;;;7.40;70.10;;;;;;5127354;27;27406;-41
2021/03/17 17:50:02;;;;;;;5.53;3.15;;;7.40;70.40;;;;;;5127020;27;27467;-42
2021/03/17 17:52:47;;;;;;;6.97;2.67;;;7.30;70.60;;;;;;5127281;27;27477;-42
2021/03/17 17:55:31;;;;;;;7.78;2.80;;;7.20;70.70;;;;;;5124789;27;27464;-41
2021/03/17 17:58:16;;;;;;;4.00;2.75;;;7.20;70.80;;;;;;5127142;27;27446;-42
2021/03/17 18:01:00;;;;;;;3.30;2.38;;;7.10;71.10;;;;;;5126483;27;27442;-41
2021/03/17 18:03:45;;;;;;;4.97;2.65;;;7.00;71.10;;;;;;5127146;27;27445;-41
2021/03/17 18:06:29;;;;;;;3.85;1.90;;;7.00;72.10;;;;;;5126775;27;27457;-42
2021/03/17 18:09:14;;;;;;;2.33;2.00;;;6.90;71.30;;;;;;5126968;27;27466;-42
2021/03/17 18:11:58;;;;;;;3.60;2.65;;;6.80;71.30;;;;;;5123288;27;27325;-42
2021/03/17 18:14:43;;;;;;;2.78;2.20;;;6.70;71.40;;;;;;5126699;27;27397;-42
2021/03/17 18:17:27;;;;;;;4.28;2.33;;;6.60;71.70;;;;;;5122751;27;27324;-42
2021/03/17 18:20:14;;;;;;;2.90;2.17;;;6.60;72.20;;;;;;5126326;27;27370;-41
2021/03/17 18:22:59;;;;;;;4.00;2.15;;;6.50;72.40;;;;;;5125975;27;27348;-41
2021/03/17 18:25:44;;;;;;;5.70;2.45;;;6.50;72.80;;;;;;5126338;27;27484;-43
2021/03/17 18:28:29;;;;;;;4.72;2.78;;;6.50;72.90;;;;;;5126215;27;28036;-43
2021/03/17 18:31:13;;;;;;;2.72;2.20;;;6.50;73.10;;;;;;5126579;27;27433;-42
2021/03/17 18:33:58;;;;;;;3.42;2.60;;;6.50;74.00;;;;;;5123300;27;27361;-41
2021/03/17 18:36:42;;;;;;;2.83;2.53;;;6.40;73.10;;;;;;5126265;27;27335;-41
2021/03/17 18:39:28;;;;;;;3.05;2.20;;;6.40;73.10;;;;;;5125602;27;27951;-41
2021/03/17 18:42:12;;;;;;;2.30;2.00;;;6.30;72.80;;;;;;5126275;27;27336;-42
2021/03/17 18:44:57;;;;;;;1.92;1.50;;;6.30;72.40;;;;;;5126109;27;27406;-40
2021/03/17 18:47:42;;;;;;;1.92;1.48;;;6.20;72.50;;;;;;5125956;27;27395;-43
2021/03/17 18:50:30;;;;;;;3.05;1.90;;;6.20;72.60;;;;;;5093574;27;27340;-41
2021/03/17 18:53:15;;;;;;;1.70;1.27;;;6.10;72.80;;;;;;5126076;27;27477;-42
2021/03/17 18:56:00;;;;;;;1.80;1.58;;;6.00;72.80;;;;;;5125604;27;27493;-41
2021/03/17 18:58:45;;;;;;;1.80;1.40;;;5.90;72.90;;;;;;5107633;27;27497;-42
2021/03/17 19:01:30;;;;;;;2.60;1.30;;;5.90;73.10;;;;;;5125239;27;27528;-42
2021/03/17 19:04:15;;;;;;;1.42;1.33;;;5.80;73.00;;;;;;5125052;27;27481;-42
2021/03/17 19:07:01;;;;;;;2.67;1.13;;;5.80;73.00;;;;;;5110916;27;27550;-43
2021/03/17 19:09:46;;;;;;;1.10;1.00;;;5.70;73.30;;;;;;5122726;27;27464;-43
2021/03/17 19:12:35;;;;;;;4.00;1.20;;;5.70;73.40;;;;;;5121408;27;27362;-41
2021/03/17 19:15:21;;;;;;;1.35;1.10;;;5.60;73.60;;;;;;5122863;27;27351;-45
2021/03/17 19:18:05;;;;;;;1.85;1.50;;;5.60;73.80;;;;;;5122343;27;27359;-42
2021/03/17 19:20:55;;;;;;;4.53;1.20;;;5.50;74.00;;;;;;5125548;27;27373;-43
2021/03/17 19:23:41;;;;;;;3.15;1.13;;;5.50;74.10;;;;;;5122894;27;27387;-42
2021/03/17 19:26:26;;;;;;;2.17;1.23;;;5.50;74.10;;;;;;5106806;27;27500;-43
2021/03/17 19:29:18;;;;;;;1.05;0.95;;;5.40;74.20;;;;;;5122364;27;27329;-46
2021/03/17 19:32:03;;;;;;;1.23;1.10;;;5.40;74.20;;;;;;5106863;27;27331;-42
2021/03/17 19:34:49;;;;;;;3.00;0.93;;;5.30;74.30;;;;;;5121321;27;27340;-47
2021/03/17 19:37:33;;;;;;;1.40;1.10;;;5.30;74.30;;;;;;5125480;27;27601;-48
2021/03/17 19:40:20;;;;;;;2.03;0.80;;;5.30;74.50;;;;;;5107000;27;27300;-47
2021/03/17 19:43:04;;;;;;;7.30;2.60;;;5.30;74.60;;;;;;5124320;27;27528;-43
2021/03/17 19:45:49;;;;;;;5.53;3.30;;;5.30;74.70;;;;;;5106415;27;27452;-42
2021/03/17 19:48:41;;;;;;;6.38;2.90;;;5.30;74.80;;;;;;5106609;27;27627;-43
2021/03/17 19:51:28;;;;;;;7.75;3.78;;;5.20;74.80;;;;;;5106926;27;27360;-43
2021/03/17 19:54:32;;;;;;;12.77;5.82;;;5.20;75.00;;;;;;5124300;27;27651;-43
2021/03/17 19:57:49;;;;;;;9.65;5.15;;;5.20;75.30;;;;;;5128416;27;27976;-43
2021/03/17 20:00:52;;;;;;;10.07;4.85;;;5.10;75.10;;;;;;5124305;27;27413;-44